Time;durP1;ratioP1;P1;durP2;ratioP2;P2;SDS_P1;SDS_P2;PMS_P1;PMS_P2;Temp;Humidity;BMP_temperature;BMP_pressure;BME280_temperature;BME280_humidity;BME280_pressure;Samples;Min_cycle;Max_cycle;Signal;HPM_P1;HPM_P2
2023/04/09 04:31:37;;;;;;;;;35.75;28.25;;;;;12.00;55.77;101833.06;5071604;27;45635;-74
2023/04/09 04:34:02;;;;;;;;;34.00;32.25;;;;;11.91;55.97;101828.88;5051028;28;45480;-76
2023/04/09 04:36:28;;;;;;;;;33.00;28.75;;;;;11.91;55.94;101842.31;5056496;28;45593;-75
2023/04/09 04:38:53;;;;;;;;;30.50;28.75;;;;;11.85;56.01;101825.53;5061581;28;50997;-74
2023/04/09 04:41:18;;;;;;;;;32.75;29.75;;;;;11.90;56.31;101839.72;5076085;28;45363;-72
2023/04/09 04:43:46;;;;;;;;;32.00;27.75;;;;;11.82;56.43;101842.66;5075948;28;45386;-74
2023/04/09 04:46:11;;;;;;;;;33.25;32.00;;;;;11.71;56.35;101840.28;5075881;28;45415;-74
2023/04/09 04:48:36;;;;;;;;;37.00;31.00;;;;;11.80;56.47;101847.19;5057866;28;45995;-75
2023/04/09 04:51:02;;;;;;;;;29.25;27.75;;;;;11.83;56.49;101848.88;5069432;28;46651;-75
2023/04/09 04:53:27;;;;;;;;;35.00;29.25;;;;;11.83;56.09;101854.25;5056006;28;45394;-74
2023/04/09 04:55:53;;;;;;;;;35.00;31.75;;;;;11.61;56.49;101821.84;5056893;28;46070;-73
2023/04/09 04:58:19;;;;;;;;;40.00;33.25;;;;;11.70;56.64;101851.06;5062784;28;46604;-74
2023/04/09 05:00:45;;;;;;;;;30.50;29.50;;;;;11.66;56.56;101852.09;5056947;28;45397;-75
2023/04/09 05:03:10;;;;;;;;;33.50;30.25;;;;;11.58;56.62;101849.66;5063168;28;45202;-74
2023/04/09 05:05:36;;;;;;;;;36.25;34.50;;;;;11.51;56.90;101850.78;5054261;28;47218;-73
2023/04/09 05:08:01;;;;;;;;;33.00;30.75;;;;;11.41;57.20;101852.00;5055611;28;46085;-74
2023/04/09 05:10:26;;;;;;;;;37.75;31.75;;;;;11.32;57.46;101849.59;5055657;28;45338;-75
2023/04/09 05:12:52;;;;;;;;;36.50;31.75;;;;;11.33;57.37;101862.09;5055515;28;45371;-75
2023/04/09 05:15:17;;;;;;;;;36.75;30.75;;;;;11.22;57.86;101850.84;5055494;28;45331;-74
2023/04/09 05:17:43;;;;;;;;;31.00;29.00;;;;;11.35;57.36;101863.81;5055404;28;46530;-75
2023/04/09 05:20:09;;;;;;;;;27.25;25.00;;;;;11.23;57.29;101840.03;5055398;28;45519;-73
2023/04/09 05:22:35;;;;;;;;;37.75;33.25;;;;;11.41;57.58;101861.88;5055292;28;45389;-73
2023/04/09 05:25:01;;;;;;;;;44.25;34.50;;;;;11.41;57.52;101868.13;5055251;28;45736;-71
2023/04/09 05:27:27;;;;;;;;;29.00;27.75;;;;;11.45;57.42;101867.09;5055242;28;45407;-72
2023/04/09 05:29:52;;;;;;;;;43.00;36.25;;;;;11.39;57.45;101861.94;5055682;28;45419;-73
2023/04/09 05:32:17;;;;;;;;;30.75;26.50;;;;;11.41;57.70;101878.84;5073870;28;45231;-73
2023/04/09 05:34:43;;;;;;;;;34.75;31.50;;;;;11.33;57.49;101873.72;5075489;28;45301;-72
2023/04/09 05:37:08;;;;;;;;;40.25;32.25;;;;;11.22;57.64;101850.84;5075166;28;45207;-72
2023/04/09 05:39:33;;;;;;;;;38.75;30.25;;;;;11.29;57.69;101871.19;5074840;27;45421;-75
2023/04/09 05:41:58;;;;;;;;;35.50;31.25;;;;;11.21;57.94;101873.25;5092361;27;45688;-70
2023/04/09 05:44:24;;;;;;;;;31.50;30.00;;;;;11.23;57.94;101876.72;5076772;27;45463;-72
2023/04/09 05:46:49;;;;;;;;;37.50;30.50;;;;;11.22;58.00;101872.31;5069272;27;46050;-73
2023/04/09 05:49:15;;;;;;;;;33.25;30.75;;;;;11.26;57.85;101874.84;5073910;28;45776;-73
2023/04/09 05:51:42;;;;;;;;;38.25;34.00;;;;;11.12;58.55;101874.41;5076583;27;45263;-72
2023/04/09 05:54:07;;;;;;;;;34.00;31.50;;;;;11.09;58.42;101877.16;5075162;28;45466;-73
2023/04/09 05:56:32;;;;;;;;;41.00;33.00;;;;;10.97;58.76;101864.13;5075059;28;45941;-73
2023/04/09 05:58:58;;;;;;;;;20.75;19.00;;;;;11.07;58.51;101887.06;5074946;28;45343;-73
2023/04/09 06:01:23;;;;;;;;;41.50;34.50;;;;;11.10;58.26;101884.28;5068246;27;45460;-73
2023/04/09 06:03:49;;;;;;;;;37.50;34.00;;;;;11.08;58.57;101880.78;5095373;27;45300;-73
2023/04/09 06:06:14;;;;;;;;;31.50;30.50;;;;;11.07;58.43;101870.97;5076931;27;47039;-71
2023/04/09 06:08:39;;;;;;;;;39.50;34.25;;;;;11.16;58.95;101885.91;5095272;27;45329;-73
2023/04/09 06:11:08;;;;;;;;;41.25;35.75;;;;;11.16;58.35;101893.97;5095443;27;45739;-73
2023/04/09 06:13:34;;;;;;;;;37.75;32.50;;;;;11.17;58.73;101888.53;5095056;27;45601;-75
2023/04/09 06:15:59;;;;;;;;;27.75;27.75;;;;;11.13;58.33;101860.06;5095274;27;45991;-74
2023/04/09 06:18:24;;;;;;;;;40.25;37.25;;;;;11.24;58.63;101892.81;5095227;27;45230;-73
2023/04/09 06:20:50;;;;;;;;;43.50;37.50;;;;;11.20;58.58;101896.53;5095346;27;45473;-71
2023/04/09 06:23:15;;;;;;;;;41.00;35.25;;;;;11.11;58.67;101893.22;5095070;27;45485;-73
2023/04/09 06:25:40;;;;;;;;;38.75;34.00;;;;;11.03;58.97;101876.47;5094814;27;45886;-73
2023/04/09 06:28:06;;;;;;;;;42.00;37.00;;;;;11.19;58.89;101891.19;5096357;27;45290;-74
2023/04/09 06:30:31;;;;;;;;;46.25;40.00;;;;;11.20;58.66;101884.91;5068069;28;45334;-73
2023/04/09 06:32:57;;;;;;;;;43.25;36.75;;;;;11.34;58.28;101899.66;5094294;27;45254;-72
2023/04/09 06:35:22;;;;;;;;;36.00;32.50;;;;;11.32;58.56;101882.69;5097405;27;46390;-70
2023/04/09 06:37:47;;;;;;;;;42.25;37.00;;;;;11.28;58.16;101875.69;5097964;27;45405;-77
2023/04/09 06:40:13;;;;;;;;;42.00;36.50;;;;;11.39;58.27;101883.41;5095523;27;45649;-75
2023/04/09 06:42:39;;;;;;;;;38.75;36.50;;;;;11.35;58.22;101884.44;5095395;27;45620;-77
2023/04/09 06:45:07;;;;;;;;;42.50;36.75;;;;;11.41;57.96;101878.84;5096446;27;45384;-78
2023/04/09 06:47:34;;;;;;;;;42.00;37.00;;;;;11.29;58.13;101847.91;5097039;27;45239;-77
2023/04/09 06:49:59;;;;;;;;;41.25;34.00;;;;;11.49;57.65;101870.56;5102334;27;45148;-77
2023/04/09 06:52:26;;;;;;;;;41.50;34.00;;;;;11.57;57.79;101873.91;5065193;28;46442;-77
2023/04/09 06:54:51;;;;;;;;;43.50;39.00;;;;;11.72;57.55;101893.09;5087145;27;48174;-77
2023/04/09 06:57:17;;;;;;;;;40.25;37.00;;;;;11.81;57.62;101888.38;5097111;27;45459;-75
2023/04/09 06:59:42;;;;;;;;;44.50;37.00;;;;;11.94;57.16;101898.66;5098441;27;45588;-74
2023/04/09 07:02:07;;;;;;;;;45.25;37.25;;;;;11.98;56.69;101900.34;5098597;27;45443;-74
2023/04/09 07:04:33;;;;;;;;;42.00;36.50;;;;;11.94;56.83;101903.16;5098524;27;45404;-77
2023/04/09 07:06:58;;;;;;;;;51.25;38.00;;;;;11.95;57.20;101894.16;5098269;27;45375;-75
2023/04/09 07:09:24;;;;;;;;;49.75;40.50;;;;;11.87;57.03;101881.00;5099356;27;45393;-79
2023/04/09 07:11:49;;;;;;;;;46.75;39.25;;;;;11.90;56.95;101888.97;5099154;27;45350;-74
2023/04/09 07:14:15;;;;;;;;;48.50;39.25;;;;;12.00;56.61;101892.19;5097841;27;45391;-74
2023/04/09 07:16:40;;;;;;;;;41.75;37.00;;;;;12.05;57.33;101901.00;5098789;27;45412;-75
2023/04/09 07:19:06;;;;;;;;;42.00;36.25;;;;;12.04;56.79;101893.88;5098665;27;51858;-76
2023/04/09 07:21:32;;;;;;;;;52.75;40.00;;;;;12.05;56.60;101888.44;5097823;27;45326;-76
2023/04/09 07:23:57;;;;;;;;;46.75;40.50;;;;;12.21;56.48;101899.53;5080077;27;46257;-77
2023/04/09 07:26:22;;;;;;;;;46.00;40.00;;;;;12.27;56.27;101901.13;5098164;27;45341;-75
2023/04/09 07:28:48;;;;;;;;;46.75;37.50;;;;;12.35;56.46;101897.25;5097916;27;45454;-74
2023/04/09 07:31:13;;;;;;;;;49.75;43.00;;;;;12.37;56.37;101894.50;5079382;27;45398;-73
2023/04/09 07:33:39;;;;;;;;;44.25;39.00;;;;;12.42;56.42;101895.22;5097921;27;45987;-75
2023/04/09 07:36:05;;;;;;;;;43.00;38.50;;;;;12.44;56.25;101885.28;5097720;27;45329;-75
2023/04/09 07:38:31;;;;;;;;;39.75;35.25;;;;;12.42;56.38;101881.78;5097957;27;45312;-74
2023/04/09 07:40:56;;;;;;;;;38.25;35.25;;;;;12.52;55.98;101885.91;5097563;27;45214;-76
2023/04/09 07:43:24;;;;;;;;;45.75;38.75;;;;;12.62;55.74;101890.03;5079058;27;46020;-74
2023/04/09 07:45:52;;;;;;;;;47.25;39.50;;;;;12.66;55.84;101897.06;5097515;27;45339;-74
2023/04/09 07:48:17;;;;;;;;;43.50;35.00;;;;;12.75;55.72;101903.91;5097917;27;45254;-75
2023/04/09 07:50:47;;;;;;;;;53.25;42.25;;;;;12.57;55.18;101864.22;5093538;27;45400;-74
2023/04/09 07:53:12;;;;;;;;;52.00;38.00;;;;;12.76;55.15;101889.53;5077411;28;45951;-76
2023/04/09 07:55:37;;;;;;;;;45.50;38.50;;;;;12.92;55.22;101897.91;5077685;27;45413;-79
2023/04/09 07:58:04;;;;;;;;;43.00;38.00;;;;;12.80;55.68;101865.13;5077564;28;45393;-79
2023/04/09 08:00:29;;;;;;;;;43.25;37.75;;;;;12.98;54.77;101881.53;5077440;27;45655;-77
2023/04/09 08:02:56;;;;;;;;;49.00;39.00;;;;;12.94;54.64;101861.91;5076012;27;48152;-78
2023/04/09 08:05:21;;;;;;;;;46.00;40.00;;;;;13.17;54.56;101888.88;5069138;27;45502;-78
2023/04/09 08:07:47;;;;;;;;;50.50;38.00;;;;;13.33;54.40;101896.38;5105129;27;45381;-78
2023/04/09 08:10:14;;;;;;;;;45.75;38.00;;;;;13.21;54.80;101866.28;5103393;27;45404;-78
2023/04/09 08:12:40;;;;;;;;;41.00;36.00;;;;;13.37;54.54;101882.72;5098336;27;45510;-80
2023/04/09 08:15:06;;;;;;;;;43.75;38.00;;;;;13.46;54.51;101885.03;5097618;27;45385;-76
2023/04/09 08:17:31;;;;;;;;;40.00;35.75;;;;;13.55;54.02;101890.06;5078599;27;45298;-75
2023/04/09 08:19:56;;;;;;;;;41.50;35.75;;;;;13.62;53.86;101883.47;5096489;27;45448;-79
2023/04/09 08:22:22;;;;;;;;;40.75;32.25;;;;;13.76;54.03;101898.22;5096528;27;46554;-75
2023/04/09 08:24:52;;;;;;;;;33.00;30.00;;;;;13.84;53.86;101902.38;5096992;27;48482;-78
2023/04/09 08:27:17;;;;;;;;;35.25;33.75;;;;;13.91;53.13;101894.91;5097377;27;45322;-76
2023/04/09 08:29:43;;;;;;;;;32.75;32.00;;;;;13.89;53.06;101888.69;5096513;27;45329;-74
2023/04/09 08:32:08;;;;;;;;;41.25;33.50;;;;;14.02;52.37;101896.22;5074724;28;48634;-75
2023/04/09 08:34:33;;;;;;;;;37.00;31.75;;;;;14.06;52.50;101896.06;5095257;27;45436;-76
2023/04/09 08:36:59;;;;;;;;;38.25;31.00;;;;;13.86;51.63;101851.97;5093841;27;45801;-73
2023/04/09 08:39:24;;;;;;;;;32.25;31.25;;;;;14.08;52.14;101887.00;5081819;27;45990;-73
2023/04/09 08:41:51;;;;;;;;;36.25;31.75;;;;;14.17;52.85;101889.28;5096628;27;45359;-72
2023/04/09 08:44:17;;;;;;;;;28.75;28.75;;;;;14.27;52.19;101892.47;5096377;27;45170;-72
2023/04/09 08:46:43;;;;;;;;;39.75;33.50;;;;;14.29;52.04;101893.31;5096825;27;45375;-75
2023/04/09 08:49:09;;;;;;;;;34.00;30.50;;;;;14.29;51.97;101887.91;5096134;27;45460;-71
2023/04/09 08:51:35;;;;;;;;;32.50;31.75;;;;;14.39;51.47;101891.97;5085878;27;45503;-75
2023/04/09 08:54:01;;;;;;;;;28.25;23.50;;;;;14.33;51.60;101871.50;5075822;28;45351;-74
2023/04/09 08:56:27;;;;;;;;;30.25;25.25;;;;;14.52;51.77;101889.63;5076402;28;45396;-75
2023/04/09 08:58:54;;;;;;;;;28.75;28.25;;;;;14.48;51.80;101863.72;5082250;27;45263;-75
2023/04/09 09:01:19;;;;;;;;;31.50;29.00;;;;;14.68;51.36;101882.59;5096350;27;46515;-75
2023/04/09 09:04:05;;;;;;;;;32.50;28.25;;;;;14.70;50.83;101864.53;5078119;27;45302;-74
2023/04/09 09:06:33;;;;;;;;;28.75;26.00;;;;;14.84;50.80;101870.16;5096188;27;45641;-74
2023/04/09 09:09:12;;;;;;;;;32.50;25.75;;;;;14.96;50.74;101869.59;5096448;27;45397;-74
2023/04/09 09:11:49;;;;;;;;;27.25;23.25;;;;;15.03;50.07;101856.69;5096342;27;45337;-74
2023/04/09 09:14:17;;;;;;;;;26.25;23.75;;;;;15.04;49.82;101839.53;5092992;27;45896;-75
2023/04/09 09:17:02;;;;;;;;;23.50;20.50;;;;;15.16;49.47;101855.16;5088392;27;45368;-73
2023/04/09 09:19:30;;;;;;;;;19.75;17.25;;;;;15.26;49.72;101859.19;5071306;27;45460;-77
2023/04/09 09:21:57;;;;;;;;;26.50;24.25;;;;;15.32;49.24;101858.00;5088703;27;46109;-77
2023/04/09 09:24:22;;;;;;;;;25.75;23.25;;;;;15.31;48.87;101856.28;5090425;27;45427;-75
2023/04/09 09:26:47;;;;;;;;;22.75;22.50;;;;;15.39;48.24;101865.75;5097080;27;45373;-77
2023/04/09 09:29:13;;;;;;;;;24.50;22.00;;;;;15.38;49.06;101853.19;5097146;27;45542;-76
2023/04/09 09:31:51;;;;;;;;;24.50;23.00;;;;;15.46;48.51;101859.09;5096522;27;45279;-76
2023/04/09 09:34:19;;;;;;;;;31.00;29.25;;;;;15.49;48.32;101853.53;5097410;27;45259;-76
2023/04/09 09:36:45;;;;;;;;;36.25;26.75;;;;;15.52;48.79;101847.13;5077756;27;45418;-74
2023/04/09 09:39:12;;;;;;;;;22.25;20.75;;;;;15.62;48.74;101844.88;5095787;27;45424;-74
2023/04/09 09:41:41;;;;;;;;;28.75;25.75;;;;;15.72;48.99;101844.34;5082700;27;46199;-77
2023/04/09 09:44:09;;;;;;;;;26.00;24.25;;;;;15.66;48.41;101816.72;5078375;27;45381;-77
2023/04/09 09:46:37;;;;;;;;;22.50;22.50;;;;;15.70;48.37;101827.31;5094779;27;45518;-75
2023/04/09 09:49:03;;;;;;;;;23.75;21.50;;;;;15.80;48.39;101820.50;5082181;27;45955;-73
2023/04/09 09:51:31;;;;;;;;;26.50;24.50;;;;;15.97;48.57;101833.16;5083331;27;46078;-76
2023/04/09 09:53:57;;;;;;;;;21.50;21.50;;;;;15.98;48.02;101837.63;5092621;27;45376;-77
2023/04/09 09:56:31;;;;;;;;;27.25;23.25;;;;;16.00;47.37;101822.16;5092408;27;45872;-77
2023/04/09 09:59:05;;;;;;;;;26.00;23.25;;;;;16.10;48.04;101833.41;5095259;27;45270;-76
2023/04/09 10:01:31;;;;;;;;;20.00;18.50;;;;;15.97;47.06;101806.13;5095085;27;45658;-77
2023/04/09 10:03:59;;;;;;;;;17.75;16.00;;;;;16.08;46.60;101819.94;5086091;27;45497;-76
2023/04/09 10:06:26;;;;;;;;;20.75;18.75;;;;;16.17;46.04;101832.13;5075763;27;45425;-76
2023/04/09 10:08:56;;;;;;;;;16.50;14.50;;;;;16.23;46.19;101826.41;5086436;27;45580;-75
2023/04/09 10:11:23;;;;;;;;;20.00;18.25;;;;;16.28;46.50;101825.22;5091695;27;46184;-73
2023/04/09 10:13:58;;;;;;;;;18.50;16.75;;;;;16.33;45.95;101832.22;5095348;27;45416;-74
2023/04/09 10:16:26;;;;;;;;;17.50;17.50;;;;;16.21;45.74;101812.97;5095088;27;45756;-76
2023/04/09 10:18:52;;;;;;;;;21.25;18.75;;;;;16.34;46.24;101815.88;5095309;27;45417;-77
2023/04/09 10:21:26;;;;;;;;;16.00;16.00;;;;;16.38;45.91;101827.44;5077417;27;46181;-76
2023/04/09 10:23:52;;;;;;;;;19.50;16.00;;;;;16.41;45.03;101821.88;5074272;28;45503;-75
2023/04/09 10:26:18;;;;;;;;;16.50;15.25;;;;;16.38;45.79;101800.38;5074740;28;45397;-72
2023/04/09 10:28:44;;;;;;;;;15.50;15.50;;;;;16.43;45.21;101812.69;5074534;27;45350;-75
2023/04/09 10:31:09;;;;;;;;;16.25;16.00;;;;;16.29;44.15;101782.78;5091363;27;45662;-77
2023/04/09 10:33:36;;;;;;;;;19.00;18.00;;;;;16.40;44.00;101818.28;5094352;27;45398;-77
2023/04/09 10:36:21;;;;;;;;;15.00;12.25;;;;;16.35;44.05;101825.75;5076171;27;45265;-79
2023/04/09 10:38:47;;;;;;;;;14.25;11.50;;;;;16.25;44.60;101789.31;5069595;27;46802;-76
2023/04/09 10:41:26;;;;;;;;;13.00;13.00;;;;;16.41;44.26;101792.97;5090652;27;46584;-76
2023/04/09 10:43:52;;;;;;;;;18.00;16.25;;;;;16.60;42.81;101823.50;5091889;27;45539;-76
2023/04/09 10:46:44;;;;;;;;;23.00;16.00;;;;;16.64;42.91;101813.41;5094483;27;45431;-77
2023/04/09 10:49:17;;;;;;;;;21.50;18.50;;;;;16.65;43.06;101809.75;5079650;27;45456;-79
2023/04/09 10:51:53;;;;;;;;;17.00;15.75;;;;;16.71;43.21;101801.28;5081688;27;45297;-78
2023/04/09 10:54:34;;;;;;;;;16.50;16.50;;;;;16.77;42.88;101798.22;5081820;27;45302;-77
2023/04/09 10:57:13;;;;;;;;;15.75;15.50;;;;;16.87;43.53;101804.03;5076445;27;45500;-76
2023/04/09 10:59:47;;;;;;;;;19.75;18.25;;;;;16.99;43.54;101789.81;5094361;27;45460;-74
2023/04/09 11:02:37;;;;;;;;;16.00;16.00;;;;;17.11;42.02;101804.47;5093931;27;46625;-77
2023/04/09 11:05:25;;;;;;;;;16.25;16.25;;;;;17.20;43.09;101790.41;5075052;27;45699;-77
2023/04/09 11:08:11;;;;;;;;;12.50;12.00;;;;;17.38;41.37;101798.38;5094674;27;45269;-76
2023/04/09 11:10:42;;;;;;;;;16.25;16.25;;;;;17.58;41.09;101802.66;5065873;28;46185;-77
2023/04/09 11:13:13;;;;;;;;;18.75;17.50;;;;;17.71;41.35;101791.97;5073934;28;45410;-79
2023/04/09 11:15:38;;;;;;;;;16.00;16.00;;;;;17.90;41.18;101803.50;5074136;28;45343;-77
2023/04/09 11:18:05;;;;;;;;;18.25;17.25;;;;;18.07;40.31;101794.34;5086987;27;45481;-77
2023/04/09 11:20:33;;;;;;;;;13.00;13.00;;;;;18.04;39.60;101751.09;5090997;27;45535;-75
2023/04/09 11:22:59;;;;;;;;;15.00;13.00;;;;;18.29;38.07;101764.06;5088202;27;45324;-76
2023/04/09 11:25:27;;;;;;;;;14.50;13.00;;;;;18.56;38.37;101780.44;5071505;27;45395;-76
2023/04/09 11:27:53;;;;;;;;;12.50;12.50;;;;;18.71;39.38;101772.28;5072332;27;45437;-76
2023/04/09 11:30:19;;;;;;;;;15.00;12.00;;;;;18.81;37.71;101765.25;5082651;27;45498;-77
2023/04/09 11:32:45;;;;;;;;;16.50;15.00;;;;;18.78;37.42;101741.03;5075852;27;46085;-73
2023/04/09 11:35:16;;;;;;;;;14.25;13.00;;;;;18.99;36.68;101756.88;5094312;27;45377;-75
2023/04/09 11:37:43;;;;;;;;;15.00;15.00;;;;;19.22;36.66;101754.41;5087954;27;45692;-76
2023/04/09 11:40:16;;;;;;;;;15.00;15.00;;;;;19.53;36.67;101763.28;5090833;27;45495;-76
2023/04/09 11:42:43;;;;;;;;;14.25;13.50;;;;;19.69;36.42;101760.41;5097366;27;46983;-72
2023/04/09 11:45:10;;;;;;;;;16.25;16.25;;;;;19.67;35.95;101746.03;5097997;27;45172;-77
2023/04/09 11:47:36;;;;;;;;;15.75;15.50;;;;;19.86;36.06;101779.19;5097969;27;45430;-77
2023/04/09 11:50:01;;;;;;;;;18.75;17.25;;;;;19.84;36.37;101756.63;5062412;27;47272;-79
2023/04/09 11:52:29;;;;;;;;;16.00;15.25;;;;;19.86;36.82;101769.16;5079359;27;45493;-77
2023/04/09 11:54:59;;;;;;;;;15.75;15.75;;;;;19.77;37.15;101756.19;5077667;27;45328;-74
2023/04/09 11:57:24;;;;;;;;;19.00;18.00;;;;;19.93;37.33;101762.31;5075812;27;45415;-73
2023/04/09 11:59:50;;;;;;;;;18.00;15.00;;;;;20.10;36.70;101761.16;5077830;28;45390;-74
2023/04/09 12:02:18;;;;;;;;;18.25;15.00;;;;;20.46;35.90;101765.03;5078959;27;47989;-75
2023/04/09 12:04:49;;;;;;;;;12.25;12.25;;;;;20.47;35.48;101769.50;5098963;27;45469;-73
2023/04/09 12:07:16;;;;;;;;;14.75;13.75;;;;;20.53;34.62;101760.88;5097466;27;45329;-77
2023/04/09 12:09:48;;;;;;;;;16.50;15.25;;;;;20.66;34.15;101742.69;5097664;27;45480;-77
2023/04/09 12:12:18;;;;;;;;;15.00;13.25;;;;;20.83;34.41;101758.69;5097417;27;45378;-77
2023/04/09 12:14:45;;;;;;;;;14.00;13.50;;;;;20.76;34.78;101762.81;5097259;27;45294;-76
2023/04/09 12:17:11;;;;;;;;;15.25;15.25;;;;;20.68;34.64;101762.50;5097716;27;45304;-76
2023/04/09 12:19:36;;;;;;;;;14.75;14.75;;;;;20.48;34.96;101752.19;5078974;27;47040;-76
2023/04/09 12:22:01;;;;;;;;;13.50;13.50;;;;;20.69;34.75;101745.16;5097400;27;45948;-73
2023/04/09 12:24:28;;;;;;;;;12.50;11.50;;;;;21.09;35.45;101734.97;5097077;27;45272;-74
2023/04/09 12:26:53;;;;;;;;;12.75;12.00;;;;;21.46;34.33;101727.63;5096657;27;46105;-76
2023/04/09 12:29:20;;;;;;;;;11.25;11.25;;;;;22.01;33.83;101735.22;5097262;27;45450;-78
2023/04/09 12:31:45;;;;;;;;;14.50;14.50;;;;;22.38;33.28;101745.94;5091669;28;45221;-75
2023/04/09 12:34:11;;;;;;;;;15.00;15.00;;;;;22.61;32.85;101715.81;5091873;27;45309;-77
2023/04/09 12:36:38;;;;;;;;;17.75;13.50;;;;;22.92;30.98;101735.19;5100599;27;45345;-75
2023/04/09 12:39:04;;;;;;;;;11.75;11.75;;;;;23.16;31.28;101729.56;5097404;27;46209;-79
2023/04/09 12:41:29;;;;;;;;;14.25;13.00;;;;;23.40;30.80;101724.75;5095900;27;45261;-74
2023/04/09 12:43:55;;;;;;;;;14.50;13.50;;;;;23.81;30.08;101718.56;5095396;27;45332;-77
2023/04/09 12:46:20;;;;;;;;;8.25;8.25;;;;;24.09;27.77;101738.94;5096063;27;45282;-72
2023/04/09 12:48:46;;;;;;;;;13.50;12.25;;;;;24.34;27.74;101713.88;5080262;27;51280;-78
2023/04/09 12:51:12;;;;;;;;;16.75;13.50;;;;;24.87;29.09;101719.19;5095355;27;46542;-78
2023/04/09 12:53:38;;;;;;;;;10.00;8.00;;;;;25.73;28.08;101713.03;5096921;27;45334;-77
2023/04/09 12:56:03;;;;;;;;;14.75;13.25;;;;;26.71;25.91;101701.72;5096930;27;45629;-78
2023/04/09 12:58:30;;;;;;;;;15.75;13.25;;;;;27.49;23.36;101714.88;5096760;27;45507;-78
2023/04/09 13:00:56;;;;;;;;;13.25;11.75;;;;;28.08;23.87;101696.81;5078697;27;47041;-75
2023/04/09 13:03:26;;;;;;;;;12.50;11.50;;;;;28.76;23.25;101707.09;5096645;27;45364;-75
2023/04/09 13:05:51;;;;;;;;;10.50;10.50;;;;;29.22;22.54;101702.97;5096610;27;45231;-72
2023/04/09 13:08:20;;;;;;;;;15.00;15.00;;;;;29.85;22.31;101694.13;5098186;27;45344;-82
2023/04/09 13:10:45;;;;;;;;;13.00;13.00;;;;;30.04;20.56;101674.44;5098226;27;45370;-75
2023/04/09 13:13:11;;;;;;;;;12.00;10.00;;;;;31.06;22.34;101671.69;5096595;27;45286;-79
2023/04/09 13:15:37;;;;;;;;;9.25;8.00;;;;;31.94;20.84;101669.38;5097472;27;45346;-71
2023/04/09 13:18:03;;;;;;;;;11.25;9.25;;;;;32.68;19.70;101659.22;5096813;27;45366;-81
2023/04/09 13:20:29;;;;;;;;;9.50;9.50;;;;;32.94;18.89;101642.06;5078505;27;53049;-86
2023/04/09 13:22:57;;;;;;;;;7.50;7.25;;;;;33.65;18.36;101670.91;5078742;27;45291;-79
2023/04/09 13:25:23;;;;;;;;;9.75;8.75;;;;;34.23;17.60;101657.72;5079388;27;45405;-78
2023/04/09 13:27:48;;;;;;;;;7.75;7.75;;;;;34.64;16.95;101651.34;5077904;27;46029;-79
2023/04/09 13:30:14;;;;;;;;;6.00;6.00;;;;;35.16;16.77;101657.19;5088327;27;45398;-76
2023/04/09 13:32:40;;;;;;;;;8.75;7.75;;;;;35.45;16.05;101633.72;5075703;27;45337;-77
2023/04/09 13:35:06;;;;;;;;;5.25;5.25;;;;;35.78;15.67;101635.69;5077342;27;45434;-79
2023/04/09 13:37:31;;;;;;;;;10.25;7.75;;;;;36.24;15.23;101647.69;5096035;27;45397;-80
2023/04/09 13:39:57;;;;;;;;;7.00;6.00;;;;;36.37;14.96;101630.94;5077970;27;47386;-80
2023/04/09 13:42:22;;;;;;;;;10.50;10.50;;;;;36.33;15.22;101612.88;5077922;27;45860;-82
2023/04/09 13:44:47;;;;;;;;;9.50;9.50;;;;;36.59;15.24;101637.09;5077728;27;45641;-84
2023/04/09 13:47:14;;;;;;;;;9.50;7.00;;;;;36.39;15.52;101600.84;5077595;27;46452;-78
2023/04/09 13:49:41;;;;;;;;;8.75;8.75;;;;;36.50;15.35;101602.09;5078441;27;47048;-79
2023/04/09 13:52:08;;;;;;;;;7.00;7.00;;;;;36.62;14.87;101607.84;5079368;27;45448;-80
2023/04/09 13:54:34;;;;;;;;;9.00;7.75;;;;;36.83;15.44;101640.28;5075761;28;45482;-81
2023/04/09 13:56:59;;;;;;;;;7.50;6.50;;;;;37.04;15.21;101628.75;5075832;27;45418;-80
2023/04/09 13:59:25;;;;;;;;;4.75;3.75;;;;;36.93;15.86;101596.75;5074893;28;45873;-84
2023/04/09 14:01:50;;;;;;;;;8.75;8.75;;;;;36.96;14.51;101589.88;5075652;27;45425;-77
2023/04/09 14:04:16;;;;;;;;;8.00;8.00;;;;;36.78;14.74;101623.28;5075619;28;45822;-76
2023/04/09 14:06:42;;;;;;;;;9.75;8.25;;;;;36.65;14.60;101607.44;5076060;28;45512;-86
2023/04/09 14:09:08;;;;;;;;;7.75;6.75;;;;;36.59;15.74;101611.06;5076047;28;45856;-82
2023/04/09 14:11:33;;;;;;;;;9.50;7.50;;;;;36.30;15.36;101573.38;5076312;28;45465;-83
2023/04/09 14:13:59;;;;;;;;;8.00;8.00;;;;;36.49;15.57;101597.59;5066804;27;45458;-84
2023/04/09 14:16:24;;;;;;;;;7.00;7.00;;;;;36.41;15.52;101585.81;5079277;27;46648;-81
2023/04/09 14:18:50;;;;;;;;;9.25;7.50;;;;;36.15;15.04;101564.38;5081012;27;47365;-81
2023/04/09 14:21:15;;;;;;;;;10.75;7.75;;;;;36.10;15.42;101594.88;5080436;27;45435;-81
2023/04/09 14:23:41;;;;;;;;;9.25;8.25;;;;;35.99;15.47;101596.38;5077289;27;45502;-79
2023/04/09 14:26:07;;;;;;;;;10.25;8.00;;;;;35.93;15.13;101597.25;5095949;27;45299;-79
2023/04/09 14:28:32;;;;;;;;;7.75;6.75;;;;;35.86;16.09;101593.63;5071171;27;45416;-83
2023/04/09 14:30:58;;;;;;;;;10.75;9.00;;;;;35.66;15.55;101555.38;5063210;27;45735;-79
2023/04/09 14:33:25;;;;;;;;;14.50;8.50;;;;;35.92;15.26;101588.03;5092038;27;45403;-74
2023/04/09 14:35:51;;;;;;;;;8.50;6.75;;;;;35.79;15.35;101576.88;5076680;27;46151;-75
2023/04/09 14:38:16;;;;;;;;;9.50;6.75;;;;;35.63;15.92;101567.00;5095134;27;47408;-78
2023/04/09 14:40:42;;;;;;;;;7.50;7.50;;;;;35.27;16.20;101555.38;5076448;27;45937;-83
2023/04/09 14:43:08;;;;;;;;;10.00;7.75;;;;;35.20;16.30;101583.22;5076915;27;45386;-76
2023/04/09 14:45:33;;;;;;;;;9.25;7.50;;;;;35.08;15.93;101576.53;5088639;27;45482;-81
2023/04/09 14:47:59;;;;;;;;;7.75;7.75;;;;;34.84;17.02;101547.34;5064832;27;46172;-81
2023/04/09 14:50:25;;;;;;;;;6.75;6.75;;;;;34.63;16.06;101536.28;5064120;27;45251;-83
2023/04/09 14:52:51;;;;;;;;;7.25;7.25;;;;;34.59;16.59;101554.50;5075322;28;45260;-82
2023/04/09 14:55:17;;;;;;;;;6.50;5.75;;;;;34.32;16.74;101545.19;5071048;27;45877;-79
2023/04/09 14:57:42;;;;;;;;;7.75;7.00;;;;;34.41;17.54;101552.28;5095249;27;46021;-82
2023/04/09 15:00:09;;;;;;;;;8.50;8.50;;;;;34.34;16.94;101551.41;5095668;27;45311;-82
2023/04/09 15:02:35;;;;;;;;;9.00;9.00;;;;;34.30;16.69;101569.56;5096130;27;45334;-88
2023/04/09 15:05:01;;;;;;;;;11.00;11.00;;;;;34.16;16.74;101570.53;5077869;27;46380;-83
2023/04/09 15:07:27;;;;;;;;;13.00;10.75;;;;;33.91;17.49;101542.34;5077815;27;47196;-78
2023/04/09 15:09:53;;;;;;;;;10.50;8.75;;;;;33.87;17.31;101554.06;5095327;27;45389;-83
2023/04/09 15:12:18;;;;;;;;;8.00;8.00;;;;;33.36;18.05;101529.25;5099329;27;45466;-81
2023/04/09 15:14:44;;;;;;;;;9.00;9.00;;;;;33.20;17.82;101566.47;5099067;27;45475;-80
2023/04/09 15:17:09;;;;;;;;;11.00;9.25;;;;;32.95;18.66;101579.03;5099413;27;45341;-72
2023/04/09 15:19:35;;;;;;;;;8.75;8.75;;;;;32.47;18.64;101562.00;5098377;27;45310;-75
2023/04/09 15:22:00;;;;;;;;;11.00;9.50;;;;;32.37;18.84;101552.22;5098212;27;45711;-75
2023/04/09 15:24:25;;;;;;;;;9.75;7.50;;;;;32.60;18.52;101559.38;5098030;27;45442;-73
2023/04/09 15:26:51;;;;;;;;;11.50;10.00;;;;;32.73;18.67;101544.84;5098281;27;45436;-75
2023/04/09 15:29:17;;;;;;;;;8.50;8.50;;;;;32.70;18.81;101550.75;5097590;27;45302;-75
2023/04/09 15:31:42;;;;;;;;;10.75;10.75;;;;;32.49;18.14;101518.25;5077423;28;45227;-78
2023/04/09 15:34:07;;;;;;;;;8.25;8.25;;;;;32.52;18.43;101523.41;5077573;28;45224;-76
2023/04/09 15:36:32;;;;;;;;;10.00;8.25;;;;;32.56;19.20;101548.88;5077595;28;46189;-75
2023/04/09 15:38:58;;;;;;;;;7.75;7.75;;;;;32.48;18.90;101540.66;5077351;27;45389;-75
2023/04/09 15:41:23;;;;;;;;;10.00;8.50;;;;;32.42;18.63;101545.03;5082870;27;45374;-76